Time;durP1;ratioP1;P1;durP2;ratioP2;P2;SDS_P1;SDS_P2;PMS_P1;PMS_P2;Temp;Humidity;BMP_temperature;BMP_pressure;BME280_temperature;BME280_humidity;BME280_pressure;Samples;Min_cycle;Max_cycle;Signal;HPM_P1;HPM_P2
2023/10/03 00:02:07;;;;;;;13.27;4.60;;;18.10;99.90;;;;;;5095478;28;20874;-86
2023/10/03 00:04:35;;;;;;;12.07;6.27;;;17.90;99.90;;;;;;5095219;28;20955;-86
2023/10/03 00:07:02;;;;;;;14.70;5.53;;;18.00;99.90;;;;;;5095073;28;20509;-86
2023/10/03 00:09:29;;;;;;;10.60;4.50;;;18.00;99.90;;;;;;5095878;28;20447;-86
2023/10/03 00:11:56;;;;;;;13.77;6.30;;;18.00;99.90;;;;;;5094999;28;20460;-86
2023/10/03 00:14:22;;;;;;;17.40;4.90;;;18.30;99.90;;;;;;5095077;28;20440;-86
2023/10/03 00:16:50;;;;;;;15.23;4.70;;;17.90;99.90;;;;;;5095104;28;20442;-86
2023/10/03 00:19:18;;;;;;;19.40;5.03;;;17.90;99.90;;;;;;5095090;28;20558;-86
2023/10/03 00:21:45;;;;;;;16.77;5.03;;;17.90;99.90;;;;;;5094833;28;20440;-86
2023/10/03 00:24:11;;;;;;;15.80;5.17;;;17.90;99.90;;;;;;5094752;28;20494;-86
2023/10/03 00:26:40;;;;;;;15.27;5.37;;;17.80;99.90;;;;;;5094742;28;20443;-86
2023/10/03 00:29:13;;;;;;;12.83;5.80;;;17.80;99.90;;;;;;5094728;28;20452;-86
2023/10/03 00:31:40;;;;;;;9.67;5.17;;;17.80;99.90;;;;;;5094436;28;20432;-86
2023/10/03 00:34:07;;;;;;;11.83;5.37;;;17.80;99.90;;;;;;5094714;28;20444;-86
2023/10/03 00:36:35;;;;;;;13.40;5.00;;;17.80;99.90;;;;;;5094611;28;20479;-86
2023/10/03 00:39:06;;;;;;;14.50;4.30;;;17.80;99.90;;;;;;5094718;28;20455;-86
2023/10/03 00:41:34;;;;;;;9.00;4.10;;;17.80;99.90;;;;;;5094076;28;20480;-86
2023/10/03 00:44:03;;;;;;;16.00;5.27;;;17.70;99.90;;;;;;5094317;28;21029;-87
2023/10/03 00:46:31;;;;;;;17.53;6.23;;;17.70;99.90;;;;;;5093750;28;20448;-86
2023/10/03 00:48:58;;;;;;;13.07;5.40;;;17.70;99.90;;;;;;5094341;28;20444;-86
2023/10/03 00:51:27;;;;;;;13.70;4.43;;;17.70;99.90;;;;;;5094415;28;20444;-86
2023/10/03 00:53:57;;;;;;;10.63;5.20;;;17.70;99.90;;;;;;5094263;28;20461;-85
2023/10/03 00:56:24;;;;;;;12.93;4.57;;;17.70;99.90;;;;;;5095077;28;20929;-86
2023/10/03 00:58:52;;;;;;;34.60;5.90;;;17.70;99.90;;;;;;5094172;28;20436;-86
2023/10/03 01:01:19;;;;;;;15.13;5.17;;;17.70;99.90;;;;;;5093860;28;20547;-86
2023/10/03 01:03:48;;;;;;;15.97;5.23;;;17.70;99.90;;;;;;5093769;28;21161;-86
2023/10/03 01:06:15;;;;;;;16.77;5.13;;;17.70;99.90;;;;;;5094162;28;20501;-86
2023/10/03 01:08:46;;;;;;;10.43;4.73;;;17.70;99.90;;;;;;5094147;28;20511;-86
2023/10/03 01:11:16;;;;;;;11.93;4.60;;;17.70;99.90;;;;;;5094055;28;20493;-86
2023/10/03 01:13:46;;;;;;;12.20;4.77;;;17.60;99.90;;;;;;5094165;28;20463;-86
2023/10/03 01:16:12;;;;;;;10.47;3.40;;;17.60;99.90;;;;;;5094055;28;20484;-86
2023/10/03 01:18:41;;;;;;;14.40;4.37;;;17.60;99.90;;;;;;5093838;28;20438;-86
2023/10/03 01:21:11;;;;;;;15.37;5.87;;;17.60;99.90;;;;;;5093838;28;20443;-86
2023/10/03 01:23:40;;;;;;;11.73;3.93;;;17.50;99.90;;;;;;5094020;28;20472;-86
2023/10/03 01:26:09;;;;;;;6.73;4.30;;;17.50;99.90;;;;;;5093793;28;20439;-86
2023/10/03 01:28:36;;;;;;;13.73;5.83;;;17.50;99.90;;;;;;5093791;28;20648;-86
2023/10/03 01:31:03;;;;;;;12.90;4.40;;;17.50;99.90;;;;;;5093710;28;20456;-86
2023/10/03 01:33:33;;;;;;;13.40;5.03;;;17.50;99.90;;;;;;5093741;28;20466;-86
2023/10/03 01:36:01;;;;;;;15.03;4.67;;;17.50;99.90;;;;;;5093690;28;20846;-86
2023/10/03 01:38:28;;;;;;;11.80;4.20;;;18.00;99.90;;;;;;5093176;28;20447;-86
2023/10/03 01:41:00;;;;;;;17.33;3.90;;;17.50;99.90;;;;;;5093412;28;20446;-86
2023/10/03 01:43:27;;;;;;;17.20;4.23;;;17.50;99.90;;;;;;5093234;28;21055;-85
2023/10/03 01:45:55;;;;;;;12.50;4.83;;;17.50;99.90;;;;;;5093529;28;20869;-86
2023/10/03 01:48:22;;;;;;;6.63;3.37;;;17.50;99.90;;;;;;5093171;28;20987;-86
2023/10/03 01:50:50;;;;;;;7.93;4.00;;;17.50;99.90;;;;;;5093654;28;20843;-86
2023/10/03 01:53:17;;;;;;;12.37;5.00;;;17.30;99.90;;;;;;5093640;28;20558;-86
2023/10/03 01:55:45;;;;;;;13.73;4.70;;;17.40;99.90;;;;;;5093524;28;20455;-86
2023/10/03 01:58:14;;;;;;;15.30;4.53;;;17.40;99.90;;;;;;5094248;28;21002;-85
2023/10/03 02:00:41;;;;;;;9.63;4.00;;;17.40;99.90;;;;;;5097784;28;20447;-86
2023/10/03 02:03:12;;;;;;;9.63;3.80;;;17.40;99.90;;;;;;5097523;28;20472;-86
2023/10/03 02:05:39;;;;;;;14.17;4.33;;;17.40;99.90;;;;;;5097266;28;20468;-85
2023/10/03 02:08:12;;;;;;;11.27;5.40;;;17.40;99.90;;;;;;5097411;28;20582;-85
2023/10/03 02:10:40;;;;;;;13.83;4.77;;;17.40;99.90;;;;;;5097645;28;20474;-86
2023/10/03 02:13:09;;;;;;;8.47;3.60;;;17.40;99.90;;;;;;5097330;28;20468;-86
2023/10/03 02:15:38;;;;;;;14.93;5.00;;;17.50;99.90;;;;;;5097274;28;20458;-85
2023/10/03 02:18:08;;;;;;;9.60;3.60;;;17.50;99.90;;;;;;5097008;28;20464;-86
2023/10/03 02:20:46;;;;;;;8.43;3.93;;;17.50;99.90;;;;;;5097368;28;20513;-85
2023/10/03 02:23:17;;;;;;;9.67;3.13;;;17.40;99.90;;;;;;5096831;28;20823;-86
2023/10/03 02:25:44;;;;;;;16.97;4.77;;;17.50;99.90;;;;;;5097198;28;20424;-86
2023/10/03 02:28:14;;;;;;;5.87;3.93;;;17.50;99.90;;;;;;5096804;28;20484;-86
2023/10/03 02:30:42;;;;;;;12.57;3.87;;;17.60;99.90;;;;;;5097110;28;20551;-86
2023/10/03 02:33:12;;;;;;;12.03;3.73;;;17.60;99.90;;;;;;5096722;28;20464;-86
2023/10/03 02:35:42;;;;;;;13.70;5.07;;;17.60;99.90;;;;;;5097008;28;20529;-86
2023/10/03 02:38:12;;;;;;;8.80;4.10;;;17.60;99.90;;;;;;5097018;28;20450;-86
2023/10/03 02:40:40;;;;;;;10.93;4.80;;;17.60;99.90;;;;;;5096847;28;20841;-86
2023/10/03 02:43:10;;;;;;;10.00;3.50;;;17.60;99.90;;;;;;5096509;28;20548;-86
2023/10/03 02:45:37;;;;;;;13.03;3.30;;;17.60;99.90;;;;;;5096780;28;20444;-86
2023/10/03 02:48:13;;;;;;;9.73;4.27;;;17.70;99.90;;;;;;5096426;28;21011;-86
2023/10/03 02:50:42;;;;;;;14.00;4.53;;;17.70;99.90;;;;;;5096835;28;20439;-86
2023/10/03 02:53:12;;;;;;;11.23;3.73;;;17.70;99.90;;;;;;5096285;28;20468;-86
2023/10/03 02:55:40;;;;;;;9.17;4.20;;;17.70;99.90;;;;;;5096670;28;20431;-86
2023/10/03 02:58:06;;;;;;;10.57;4.07;;;17.80;99.90;;;;;;5096269;28;20920;-86
2023/10/03 03:00:35;;;;;;;10.70;3.77;;;17.80;99.90;;;;;;5096195;28;20940;-85
2023/10/03 03:03:06;;;;;;;8.13;3.17;;;17.80;99.90;;;;;;5096385;28;20468;-86
2023/10/03 03:05:36;;;;;;;7.10;3.33;;;17.80;99.90;;;;;;5096595;28;20439;-86
2023/10/03 03:08:10;;;;;;;7.20;3.33;;;17.90;99.90;;;;;;5096455;28;20490;-86
2023/10/03 03:10:39;;;;;;;6.90;3.50;;;17.90;99.90;;;;;;5095330;28;20427;-86
2023/10/03 03:13:07;;;;;;;9.50;3.70;;;17.90;99.90;;;;;;5096262;28;20464;-85
2023/10/03 03:15:37;;;;;;;4.97;3.33;;;17.90;99.90;;;;;;5095988;28;20863;-86
2023/10/03 03:18:04;;;;;;;5.13;2.93;;;17.90;99.90;;;;;;5096370;28;20447;-86
2023/10/03 03:20:37;;;;;;;10.07;3.40;;;18.00;99.90;;;;;;5095880;28;20456;-86
2023/10/03 03:23:09;;;;;;;12.40;4.07;;;18.00;99.90;;;;;;5096295;28;20468;-86
2023/10/03 03:25:37;;;;;;;6.50;3.33;;;18.40;99.90;;;;;;5096284;28;20432;-86
2023/10/03 03:28:12;;;;;;;11.93;3.50;;;18.10;99.90;;;;;;5096067;28;20488;-86
2023/10/03 03:30:45;;;;;;;6.60;2.83;;;18.00;99.90;;;;;;5096039;28;20475;-86
2023/10/03 03:33:14;;;;;;;6.37;3.13;;;18.00;99.90;;;;;;5095976;28;20995;-86
2023/10/03 03:35:41;;;;;;;10.80;3.10;;;18.00;99.90;;;;;;5095859;28;20539;-86
2023/10/03 03:38:15;;;;;;;10.23;3.07;;;18.00;99.90;;;;;;5095874;28;20806;-86
2023/10/03 03:40:45;;;;;;;6.27;3.20;;;18.00;99.90;;;;;;5095709;28;20435;-85
2023/10/03 03:43:13;;;;;;;11.10;4.70;;;18.00;99.90;;;;;;5095508;28;20474;-86
2023/10/03 03:45:40;;;;;;;7.27;3.00;;;18.00;99.90;;;;;;5095527;28;20986;-86
2023/10/03 03:48:07;;;;;;;5.60;2.73;;;18.00;99.90;;;;;;5095470;28;20491;-86
2023/10/03 03:50:34;;;;;;;6.53;3.70;;;18.00;99.90;;;;;;5095725;28;20448;-86
2023/10/03 03:53:02;;;;;;;8.73;3.57;;;18.00;99.90;;;;;;5095463;28;20824;-86
2023/10/03 03:55:31;;;;;;;5.70;2.53;;;18.00;99.90;;;;;;5095568;28;20451;-86
2023/10/03 03:57:59;;;;;;;10.30;4.13;;;18.00;99.90;;;;;;5095594;28;20452;-87
2023/10/03 04:00:28;;;;;;;6.53;2.67;;;18.10;99.90;;;;;;5096016;28;20456;-86
2023/10/03 04:02:58;;;;;;;12.17;4.10;;;18.10;99.90;;;;;;5095886;28;20525;-86
2023/10/03 04:05:27;;;;;;;8.13;3.10;;;18.10;99.90;;;;;;5095285;28;20436;-86
2023/10/03 04:07:54;;;;;;;12.37;3.00;;;18.00;99.90;;;;;;5095244;28;20825;-86
2023/10/03 04:10:22;;;;;;;8.63;2.40;;;18.10;99.90;;;;;;5095309;28;20440;-86
2023/10/03 04:12:50;;;;;;;8.83;3.23;;;18.10;99.90;;;;;;5095034;28;20989;-86
2023/10/03 04:15:19;;;;;;;9.80;3.53;;;18.10;99.90;;;;;;5095183;28;20819;-87
2023/10/03 04:17:48;;;;;;;10.63;5.10;;;18.10;99.90;;;;;;5095114;28;20432;-86
2023/10/03 04:20:21;;;;;;;8.17;3.43;;;18.10;99.90;;;;;;5095204;28;20447;-86
2023/10/03 04:22:50;;;;;;;6.03;2.60;;;18.10;99.90;;;;;;5093945;28;20456;-86
2023/10/03 04:25:19;;;;;;;7.10;2.40;;;18.10;99.90;;;;;;5094683;28;20477;-86
2023/10/03 04:27:48;;;;;;;6.83;3.20;;;18.10;99.90;;;;;;5094914;28;20503;-86
2023/10/03 04:30:19;;;;;;;8.20;3.50;;;18.10;99.90;;;;;;5094826;28;20443;-86
2023/10/03 04:32:47;;;;;;;4.83;2.23;;;18.10;99.90;;;;;;5094462;28;20964;-86
2023/10/03 04:35:16;;;;;;;7.23;3.23;;;18.10;99.90;;;;;;5094776;28;20811;-86
2023/10/03 04:37:42;;;;;;;7.40;3.10;;;18.10;99.90;;;;;;5094637;28;20455;-86
2023/10/03 04:40:12;;;;;;;3.20;2.27;;;18.00;99.90;;;;;;5094760;28;20450;-86
2023/10/03 04:42:40;;;;;;;6.30;3.33;;;18.00;99.90;;;;;;5094020;28;20519;-86
2023/10/03 04:45:10;;;;;;;11.63;3.23;;;18.00;99.90;;;;;;5094693;28;20444;-86
2023/10/03 04:47:38;;;;;;;8.90;3.17;;;18.10;99.90;;;;;;5094449;28;20451;-86
2023/10/03 04:50:06;;;;;;;5.40;3.20;;;18.10;99.90;;;;;;5094415;28;20488;-86
2023/10/03 04:52:32;;;;;;;6.07;3.20;;;18.10;99.90;;;;;;5094482;28;20466;-86
2023/10/03 04:54:59;;;;;;;5.37;3.10;;;18.00;99.90;;;;;;5094355;28;20444;-85
2023/10/03 04:57:27;;;;;;;7.30;2.20;;;18.10;99.90;;;;;;5094349;28;20447;-84
2023/10/03 04:59:56;;;;;;;12.90;3.33;;;18.10;99.90;;;;;;5093927;28;20811;-86
2023/10/03 05:02:22;;;;;;;6.27;2.50;;;18.10;99.90;;;;;;5094177;28;20536;-86
2023/10/03 05:04:51;;;;;;;8.00;2.93;;;18.10;99.90;;;;;;5094177;28;20448;-86
2023/10/03 05:07:18;;;;;;;8.87;3.07;;;18.10;99.90;;;;;;5094182;28;20450;-86
2023/10/03 05:09:45;;;;;;;6.50;3.07;;;18.10;99.90;;;;;;5093781;28;20479;-86
2023/10/03 05:12:12;;;;;;;5.87;2.53;;;18.10;99.90;;;;;;5094056;28;20468;-86
2023/10/03 05:14:41;;;;;;;5.40;2.87;;;18.10;99.90;;;;;;5094145;28;20547;-86
2023/10/03 05:17:07;;;;;;;4.50;2.70;;;18.20;99.90;;;;;;5093910;28;20444;-86
2023/10/03 05:19:36;;;;;;;6.53;1.87;;;18.40;99.90;;;;;;5094281;28;20440;-86
2023/10/03 05:22:08;;;;;;;8.30;2.70;;;18.00;99.90;;;;;;5093924;28;20482;-86
2023/10/03 05:24:35;;;;;;;6.70;3.57;;;18.00;99.90;;;;;;5093968;28;20793;-85
2023/10/03 05:27:03;;;;;;;5.80;2.60;;;18.00;99.90;;;;;;5094178;28;20444;-86
2023/10/03 05:29:30;;;;;;;6.70;3.00;;;18.00;99.90;;;;;;5093999;28;20574;-86
2023/10/03 05:32:00;;;;;;;4.07;2.43;;;18.00;99.90;;;;;;5093709;28;20464;-86
2023/10/03 05:34:26;;;;;;;8.70;2.57;;;17.90;99.90;;;;;;5093489;28;20451;-86
2023/10/03 05:36:53;;;;;;;5.80;1.97;;;18.00;99.90;;;;;;5093700;28;20448;-86
2023/10/03 05:39:22;;;;;;;4.33;2.50;;;18.00;99.90;;;;;;5093751;28;20436;-86
2023/10/03 05:41:53;;;;;;;5.77;2.50;;;18.00;99.90;;;;;;5093237;28;20532;-86
2023/10/03 05:44:21;;;;;;;5.33;2.47;;;18.00;99.90;;;;;;5093990;28;20500;-86
2023/10/03 05:46:52;;;;;;;2.87;2.10;;;18.00;99.90;;;;;;5093718;28;20439;-86
2023/10/03 05:49:19;;;;;;;4.87;2.77;;;18.00;99.90;;;;;;5093480;28;20468;-86
2023/10/03 05:51:46;;;;;;;6.73;2.27;;;18.10;99.90;;;;;;5093813;28;20448;-86
2023/10/03 05:54:13;;;;;;;5.30;1.93;;;18.10;99.90;;;;;;5093520;28;20811;-86
2023/10/03 05:56:41;;;;;;;7.07;2.50;;;18.10;99.90;;;;;;5093310;28;20436;-86
2023/10/03 05:59:08;;;;;;;8.20;2.57;;;18.40;99.90;;;;;;5093554;28;20436;-86
2023/10/03 06:01:34;;;;;;;8.90;2.43;;;18.20;99.90;;;;;;5093318;28;20444;-86
2023/10/03 06:04:02;;;;;;;6.70;2.47;;;18.20;99.90;;;;;;5093676;28;20459;-86
2023/10/03 06:06:29;;;;;;;3.47;1.87;;;18.20;99.90;;;;;;5093145;28;20999;-86
2023/10/03 06:08:56;;;;;;;7.47;2.77;;;18.50;99.90;;;;;;5093027;28;20475;-86
2023/10/03 06:11:24;;;;;;;10.70;2.40;;;18.70;99.90;;;;;;5093394;28;20440;-86
2023/10/03 06:13:52;;;;;;;3.33;1.90;;;18.50;99.90;;;;;;5093014;28;20468;-86
2023/10/03 06:16:19;;;;;;;6.03;2.63;;;18.50;99.90;;;;;;5093319;28;20448;-86
2023/10/03 06:18:47;;;;;;;6.10;2.23;;;18.50;99.90;;;;;;5093289;28;20441;-86
2023/10/03 06:21:14;;;;;;;5.10;2.40;;;18.50;99.90;;;;;;5092999;28;20433;-86
2023/10/03 06:23:40;;;;;;;4.03;2.10;;;18.50;99.90;;;;;;5093097;28;20826;-86
2023/10/03 06:26:07;;;;;;;3.40;2.30;;;18.50;99.90;;;;;;5093271;28;20443;-86
2023/10/03 06:28:34;;;;;;;9.73;2.43;;;18.60;99.90;;;;;;5093214;28;20444;-86
2023/10/03 06:31:02;;;;;;;3.30;1.90;;;18.60;99.90;;;;;;5093043;28;20497;-86
2023/10/03 06:33:30;;;;;;;5.40;2.00;;;18.70;99.90;;;;;;5093000;28;20452;-86
2023/10/03 06:35:56;;;;;;;6.60;2.40;;;18.70;99.90;;;;;;5093223;28;20442;-86
2023/10/03 06:38:23;;;;;;;4.60;1.63;;;18.80;99.90;;;;;;5093132;28;20432;-86
2023/10/03 06:40:50;;;;;;;2.40;1.30;;;18.80;99.90;;;;;;5092922;28;20443;-86
2023/10/03 06:43:17;;;;;;;6.13;1.83;;;19.30;99.90;;;;;;5093097;28;20456;-86
2023/10/03 06:45:44;;;;;;;2.90;1.50;;;19.00;99.90;;;;;;5094958;28;20452;-86
2023/10/03 06:48:12;;;;;;;3.57;2.30;;;19.10;99.90;;;;;;5096818;28;20447;-86
2023/10/03 06:50:39;;;;;;;3.80;1.67;;;19.20;99.90;;;;;;5096640;28;20506;-86
2023/10/03 06:53:06;;;;;;;3.80;2.00;;;19.30;99.90;;;;;;5096622;28;20464;-86
2023/10/03 06:55:35;;;;;;;2.50;1.57;;;19.30;99.90;;;;;;5096643;28;20443;-85
2023/10/03 06:58:02;;;;;;;4.37;2.40;;;19.40;99.90;;;;;;5096284;28;20447;-86
2023/10/03 07:00:30;;;;;;;2.20;2.00;;;19.40;99.90;;;;;;5096194;28;20440;-85
2023/10/03 07:02:57;;;;;;;2.70;1.63;;;19.60;99.90;;;;;;5096260;28;20475;-85
2023/10/03 07:05:25;;;;;;;2.37;2.00;;;19.60;99.90;;;;;;5095990;28;20862;-85
2023/10/03 07:07:53;;;;;;;6.30;3.00;;;19.70;99.90;;;;;;5096588;28;20443;-86
2023/10/03 07:10:21;;;;;;;2.53;2.03;;;19.60;99.90;;;;;;5096294;28;20486;-85
2023/10/03 07:12:48;;;;;;;4.80;1.90;;;19.70;99.90;;;;;;5096143;28;20464;-86
2023/10/03 07:15:15;;;;;;;3.53;1.77;;;19.80;99.90;;;;;;5095820;28;20971;-85
2023/10/03 07:17:41;;;;;;;4.97;2.00;;;19.90;99.90;;;;;;5096291;28;20451;-85
2023/10/03 07:20:10;;;;;;;6.70;2.27;;;20.00;99.90;;;;;;5095814;28;20446;-86
2023/10/03 07:22:38;;;;;;;2.03;1.83;;;20.10;99.90;;;;;;5096208;28;20467;-86
2023/10/03 07:25:08;;;;;;;7.70;2.83;;;20.10;99.90;;;;;;5096012;28;20442;-86
2023/10/03 07:27:35;;;;;;;3.57;1.67;;;20.20;99.90;;;;;;5095566;28;20936;-85
2023/10/03 07:30:03;;;;;;;2.77;1.87;;;20.20;99.90;;;;;;5095809;28;20479;-86
2023/10/03 07:32:30;;;;;;;4.73;2.43;;;20.20;99.90;;;;;;5095516;28;20461;-85
2023/10/03 07:34:58;;;;;;;8.97;2.60;;;20.30;99.90;;;;;;5095783;28;20492;-85
2023/10/03 07:37:24;;;;;;;7.80;2.20;;;20.30;99.90;;;;;;5095447;28;20448;-85
2023/10/03 07:39:53;;;;;;;3.20;2.20;;;20.30;99.90;;;;;;5095334;28;20813;-85
2023/10/03 07:42:22;;;;;;;4.87;2.40;;;20.40;99.90;;;;;;5095320;28;20479;-86
2023/10/03 07:44:52;;;;;;;3.33;2.00;;;20.50;99.90;;;;;;5095336;28;20450;-85
2023/10/03 07:47:20;;;;;;;2.87;1.90;;;20.50;99.90;;;;;;5095568;28;20869;-86
2023/10/03 07:49:48;;;;;;;3.20;2.33;;;20.80;99.90;;;;;;5095116;28;20572;-85
2023/10/03 07:52:17;;;;;;;3.00;2.30;;;20.60;99.90;;;;;;5095399;28;20499;-85
2023/10/03 07:54:46;;;;;;;3.47;1.73;;;20.70;99.90;;;;;;5095325;28;20817;-86
2023/10/03 07:57:14;;;;;;;4.07;2.20;;;20.80;99.90;;;;;;5095107;28;20443;-85
2023/10/03 07:59:43;;;;;;;4.33;2.20;;;21.00;99.90;;;;;;5095299;28;20530;-86
2023/10/03 08:02:11;;;;;;;3.30;1.67;;;21.10;99.90;;;;;;5095160;28;20968;-85
2023/10/03 08:04:40;;;;;;;1.87;1.73;;;21.30;99.90;;;;;;5095150;28;20455;-86
2023/10/03 08:07:07;;;;;;;3.33;1.57;;;21.30;99.90;;;;;;5095165;28;20534;-86
2023/10/03 08:09:35;;;;;;;3.40;2.10;;;21.50;99.90;;;;;;5094728;28;21022;-86
2023/10/03 08:12:11;;;;;;;2.77;1.93;;;21.70;99.90;;;;;;5095030;28;20471;-86
2023/10/03 08:14:39;;;;;;;4.87;2.23;;;21.90;99.90;;;;;;5095033;28;20510;-85
2023/10/03 08:17:06;;;;;;;2.70;2.17;;;22.20;99.90;;;;;;5094999;28;20451;-85
2023/10/03 08:19:33;;;;;;;4.37;2.00;;;22.40;99.90;;;;;;5094973;28;20484;-86
2023/10/03 08:22:00;;;;;;;4.80;3.10;;;22.80;99.90;;;;;;5094814;28;20455;-86
2023/10/03 08:24:28;;;;;;;3.73;2.40;;;22.80;99.90;;;;;;5094818;28;20443;-84
2023/10/03 08:26:58;;;;;;;2.17;1.97;;;23.00;99.90;;;;;;5094461;28;20681;-85
2023/10/03 08:29:26;;;;;;;2.80;1.43;;;23.00;99.90;;;;;;5094378;28;20209;-86
2023/10/03 08:31:57;;;;;;;3.03;1.57;;;23.00;99.90;;;;;;5094601;28;20471;-85
2023/10/03 08:34:25;;;;;;;5.95;2.47;;;23.30;99.90;;;;;;5094402;28;20630;-85
2023/10/03 08:36:54;;;;;;;5.80;2.10;;;23.30;99.90;;;;;;5094460;28;20201;-85
2023/10/03 08:39:23;;;;;;;3.35;1.65;;;23.40;99.90;;;;;;5094265;28;20762;-86
2023/10/03 08:42:00;;;;;;;3.25;1.63;;;23.30;99.90;;;;;;5094125;28;20246;-86
2023/10/03 08:44:36;;;;;;;3.00;1.73;;;23.30;99.90;;;;;;5094514;28;20185;-86
2023/10/03 08:47:09;;;;;;;2.90;1.67;;;23.40;99.90;;;;;;5094300;28;20185;-86
2023/10/03 08:49:40;;;;;;;2.45;1.60;;;23.60;99.90;;;;;;5094306;28;20300;-85
2023/10/03 08:52:09;;;;;;;3.92;2.53;;;24.10;99.90;;;;;;5094353;28;20220;-86
2023/10/03 08:54:37;;;;;;;1.70;1.60;;;24.10;99.90;;;;;;5094473;28;20197;-86
2023/10/03 08:57:05;;;;;;;6.72;2.08;;;24.20;99.90;;;;;;5094399;28;20201;-86
2023/10/03 08:59:32;;;;;;;3.72;1.85;;;24.30;99.90;;;;;;5093830;28;20740;-85
2023/10/03 09:02:08;;;;;;;2.42;1.75;;;24.30;99.90;;;;;;5094170;28;20217;-86
2023/10/03 09:04:38;;;;;;;2.35;1.80;;;24.30;99.90;;;;;;5093866;28;20635;-86
2023/10/03 09:07:09;;;;;;;2.63;1.73;;;24.40;99.90;;;;;;5094227;28;20205;-86
2023/10/03 09:09:41;;;;;;;3.45;1.83;;;24.40;99.90;;;;;;5093252;28;20209;-86
2023/10/03 09:12:08;;;;;;;3.00;1.95;;;24.40;99.90;;;;;;5093581;28;20725;-85
2023/10/03 09:14:36;;;;;;;5.70;2.45;;;24.40;99.90;;;;;;5093938;28;20287;-87
2023/10/03 09:17:03;;;;;;;2.15;1.85;;;24.30;99.90;;;;;;5093687;28;20201;-87
2023/10/03 09:19:43;;;;;;;3.28;2.28;;;24.30;99.90;;;;;;5093424;28;20205;-86
2023/10/03 09:22:10;;;;;;;3.22;1.77;;;24.20;99.90;;;;;;5093699;28;20721;-85
2023/10/03 09:24:43;;;;;;;2.38;2.17;;;24.30;99.90;;;;;;5093588;28;20193;-86
2023/10/03 09:27:17;;;;;;;2.25;1.83;;;24.20;99.90;;;;;;5094018;28;20221;-86
2023/10/03 09:29:45;;;;;;;2.63;1.58;;;24.30;99.90;;;;;;5093774;28;20305;-86
2023/10/03 09:32:14;;;;;;;2.42;2.05;;;24.40;99.90;;;;;;5093346;28;20721;-86
2023/10/03 09:34:43;;;;;;;2.58;2.00;;;24.50;99.90;;;;;;5093576;28;20253;-86
2023/10/03 09:37:10;;;;;;;9.27;2.70;;;24.50;99.90;;;;;;5093134;28;20697;-86
2023/10/03 09:39:47;;;;;;;2.75;1.70;;;24.90;99.90;;;;;;5093557;28;20254;-86
2023/10/03 09:42:16;;;;;;;2.00;1.80;;;25.60;99.90;;;;;;5092926;28;20276;-86
2023/10/03 09:44:43;;;;;;;4.35;2.75;;;26.20;99.90;;;;;;5093284;28;20209;-86
2023/10/03 09:47:12;;;;;;;3.13;1.95;;;26.60;99.90;;;;;;5093325;28;20201;-86
2023/10/03 09:49:39;;;;;;;2.22;1.77;;;26.90;99.90;;;;;;5092919;28;20670;-87
2023/10/03 09:52:09;;;;;;;3.42;2.08;;;27.10;99.90;;;;;;5093312;28;20225;-86
2023/10/03 09:54:37;;;;;;;2.53;2.33;;;27.50;99.90;;;;;;5093399;28;20210;-86
2023/10/03 09:57:15;;;;;;;2.47;2.13;;;27.50;99.90;;;;;;5093210;28;20201;-87
2023/10/03 09:59:45;;;;;;;2.95;1.92;;;27.60;99.90;;;;;;5093309;28;20185;-86
2023/10/03 10:02:14;;;;;;;3.05;1.60;;;28.10;99.90;;;;;;5093117;28;20253;-86
2023/10/03 10:04:42;;;;;;;2.05;1.70;;;27.90;99.90;;;;;;5093012;28;20286;-87
2023/10/03 10:07:27;;;;;;;2.15;1.60;;;27.90;99.90;;;;;;5093458;28;20209;-86
2023/10/03 10:10:07;;;;;;;1.60;1.50;;;27.90;99.90;;;;;;5093238;28;20205;-86
2023/10/03 10:12:37;;;;;;;2.80;1.63;;;27.80;99.90;;;;;;5093155;28;20248;-86
2023/10/03 10:15:14;;;;;;;2.20;1.88;;;27.80;99.90;;;;;;5093132;28;20217;-86
2023/10/03 10:17:44;;;;;;;2.33;2.10;;;27.60;99.90;;;;;;5093258;28;20585;-86
2023/10/03 10:20:13;;;;;;;3.63;2.40;;;27.50;99.90;;;;;;5095732;28;20186;-83
2023/10/03 10:23:20;;;;;;;2.00;1.80;;;27.20;99.90;;;;;;5097253;28;20331;-86
2023/10/03 10:25:57;;;;;;;3.83;1.55;;;27.00;99.90;;;;;;5097260;28;20193;-85
2023/10/03 10:28:31;;;;;;;1.50;1.40;;;26.90;99.90;;;;;;5097081;28;20185;-85
2023/10/03 10:31:21;;;;;;;1.77;1.50;;;26.60;99.90;;;;;;5096995;28;20217;-84
2023/10/03 10:33:49;;;;;;;9.05;1.55;;;26.30;99.90;;;;;;5097017;28;20276;-86
2023/10/03 10:36:18;;;;;;;3.17;1.85;;;26.20;99.90;;;;;;5097065;28;20284;-86
2023/10/03 10:38:53;;;;;;;2.33;1.83;;;25.90;99.90;;;;;;5096702;28;20205;-86
2023/10/03 10:41:27;;;;;;;4.07;1.73;;;25.80;99.90;;;;;;5096656;28;20225;-86
2023/10/03 10:44:13;;;;;;;2.10;1.73;;;25.70;99.90;;;;;;5096715;28;20217;-86
2023/10/03 10:46:44;;;;;;;1.90;1.80;;;26.20;99.90;;;;;;5097419;28;20182;-86
2023/10/03 10:49:51;;;;;;;2.53;1.55;;;26.90;99.90;;;;;;5096725;28;20196;-86
2023/10/03 10:52:19;;;;;;;2.05;1.60;;;27.50;99.90;;;;;;5096588;28;20228;-86
2023/10/03 10:54:47;;;;;;;2.65;1.40;;;27.90;99.90;;;;;;5096297;28;20705;-86
2023/10/03 10:57:15;;;;;;;3.83;1.67;;;28.00;99.90;;;;;;5096546;28;20577;-86
2023/10/03 10:59:43;;;;;;;3.45;1.73;;;27.90;99.90;;;;;;5096519;28;20201;-86
2023/10/03 11:02:20;;;;;;;2.45;1.73;;;27.80;99.90;;;;;;5096425;28;20278;-86
2023/10/03 11:04:54;;;;;;;8.38;2.10;;;27.70;99.90;;;;;;5096386;28;20247;-86
2023/10/03 11:07:22;;;;;;;1.98;1.65;;;27.70;99.90;;;;;;5096823;28;20185;-86
2023/10/03 11:09:51;;;;;;;3.58;2.30;;;27.60;99.90;;;;;;5096126;28;20201;-86
2023/10/03 11:12:24;;;;;;;1.67;1.50;;;27.50;99.90;;;;;;5096194;28;20245;-86
2023/10/03 11:14:52;;;;;;;1.77;1.23;;;27.40;99.90;;;;;;5096207;28;20201;-86
2023/10/03 11:17:19;;;;;;;2.03;1.92;;;27.20;99.90;;;;;;5096185;28;20205;-86
2023/10/03 11:19:47;;;;;;;3.08;2.05;;;27.00;99.90;;;;;;5096183;28;20212;-86
2023/10/03 11:22:15;;;;;;;2.55;1.85;;;26.90;99.90;;;;;;5096030;28;20221;-89
2023/10/03 11:24:42;;;;;;;4.45;2.65;;;26.70;99.90;;;;;;5096102;28;20206;-85
2023/10/03 11:27:21;;;;;;;2.30;1.95;;;26.70;99.90;;;;;;5095610;28;20663;-86
2023/10/03 11:29:48;;;;;;;3.00;1.88;;;26.50;99.90;;;;;;5095657;28;20189;-86
2023/10/03 11:32:22;;;;;;;5.80;1.90;;;26.50;99.90;;;;;;5094924;28;20286;-85
2023/10/03 11:34:49;;;;;;;2.80;2.55;;;26.30;99.90;;;;;;5095919;28;20186;-85
2023/10/03 11:37:30;;;;;;;3.15;1.60;;;26.30;99.90;;;;;;5095486;28;20201;-85
2023/10/03 11:40:10;;;;;;;1.67;1.30;;;26.20;99.90;;;;;;5095785;28;20278;-85
2023/10/03 11:42:50;;;;;;;1.88;1.77;;;26.30;99.90;;;;;;5095326;28;20241;-85
2023/10/03 11:45:18;;;;;;;2.03;1.83;;;26.30;99.90;;;;;;5095637;28;20190;-85
2023/10/03 11:48:01;;;;;;;2.22;2.08;;;26.20;99.90;;;;;;5095616;28;20209;-85
2023/10/03 11:50:28;;;;;;;4.20;2.05;;;26.10;99.90;;;;;;5095149;28;20659;-84
2023/10/03 11:52:57;;;;;;;1.88;1.77;;;26.00;99.90;;;;;;5095436;28;20225;-85
2023/10/03 11:55:24;;;;;;;2.72;2.17;;;26.10;99.90;;;;;;5095459;28;20209;-85
2023/10/03 11:57:52;;;;;;;2.47;2.28;;;26.10;99.90;;;;;;5095341;28;20205;-85
2023/10/03 12:00:24;;;;;;;2.15;1.98;;;26.20;99.90;;;;;;5095711;28;20204;-85
2023/10/03 12:02:51;;;;;;;3.67;1.80;;;26.10;99.90;;;;;;5095256;28;20713;-85
2023/10/03 12:05:18;;;;;;;2.65;2.20;;;26.00;99.90;;;;;;5095243;28;20198;-85
2023/10/03 12:07:46;;;;;;;2.17;1.90;;;26.10;99.90;;;;;;5095107;28;20212;-85
2023/10/03 12:10:12;;;;;;;2.50;1.75;;;25.90;99.90;;;;;;5096318;28;20201;-84
2023/10/03 12:12:39;;;;;;;2.75;2.08;;;25.60;99.90;;;;;;5094922;28;20244;-85
2023/10/03 12:15:12;;;;;;;2.90;2.13;;;25.80;99.90;;;;;;5081005;28;20576;-85
2023/10/03 12:17:40;;;;;;;2.40;1.80;;;25.50;99.90;;;;;;5075024;28;20241;-85
2023/10/03 12:20:11;;;;;;;2.60;2.40;;;25.40;99.90;;;;;;5076298;28;20201;-84
2023/10/03 12:22:41;;;;;;;2.28;2.05;;;25.30;99.90;;;;;;5094529;28;20615;-84
2023/10/03 12:25:10;;;;;;;2.13;2.00;;;25.70;99.90;;;;;;5094721;28;20625;-85
2023/10/03 12:27:38;;;;;;;4.53;2.00;;;25.30;99.90;;;;;;5094682;28;20666;-84
2023/10/03 12:30:09;;;;;;;3.50;2.17;;;25.30;99.90;;;;;;5094625;28;20259;-85
2023/10/03 12:32:38;;;;;;;2.65;2.38;;;25.20;99.90;;;;;;5094885;28;20279;-85
2023/10/03 12:35:06;;;;;;;2.55;2.28;;;25.10;99.90;;;;;;5094683;28;20205;-85
2023/10/03 12:37:33;;;;;;;4.22;2.75;;;25.10;99.90;;;;;;5094594;28;20201;-85
2023/10/03 12:40:04;;;;;;;2.65;1.98;;;25.10;99.90;;;;;;5094545;28;20323;-85
2023/10/03 12:42:32;;;;;;;5.75;2.15;;;24.80;99.90;;;;;;5093331;28;20229;-84
2023/10/03 12:45:03;;;;;;;2.05;1.88;;;24.80;99.90;;;;;;5093566;28;20209;-85
2023/10/03 12:47:30;;;;;;;3.45;2.03;;;24.70;99.90;;;;;;5094189;28;20186;-85
2023/10/03 12:49:59;;;;;;;4.18;2.58;;;24.70;99.90;;;;;;5079402;28;20217;-85
2023/10/03 12:52:25;;;;;;;2.05;1.92;;;24.70;99.90;;;;;;5074987;28;20238;-84
2023/10/03 12:54:53;;;;;;;3.92;2.38;;;25.10;99.90;;;;;;5091288;28;20288;-84
2023/10/03 12:57:19;;;;;;;3.60;2.15;;;24.60;99.90;;;;;;5093896;28;20636;-84